Broseley, United Kingdom
Current Conditions -  °F | °C
As of 11:50 PM on Monday 22 Dec 2014 (Local Time) from EGOS Reporting Station
Overcast Overcast  
Wind Chill: 52°   Ceiling: 1600
Heat Index: 52°   Visibility: 6mi
Dew Point: 48°   Wind: 22mph
Humidity: 88%   Direction: 230°SW
Pressure: 29.91"   Gusts: 33mph
Location:  52.61°N, 2.48°W
Report Text: EGOS 222350Z AUTO 23019G29KT 9999 OVC016/// 11/09 Q1013 RERA
Loading
Personal Weather Stations






























Interactive Weather Map New forecast layout! Learn more

10-Day Weather Forecast

Advertisements
Track Severe Weather on mobile